Time;durP1;ratioP1;P1;durP2;ratioP2;P2;SDS_P1;SDS_P2;PMS_P1;PMS_P2;Temp;Humidity;BMP_temperature;BMP_pressure;BME280_temperature;BME280_humidity;BME280_pressure;Samples;Min_cycle;Max_cycle;Signal;HPM_P1;HPM_P2
2022/03/14 00:02:06;;;;;;;6.70;6.07;;;20.00;37.00;;;;;;6185868;23;20168;-54
2022/03/14 00:04:38;;;;;;;6.90;6.20;;;19.90;37.00;;;;;;6159628;23;20168;-54
2022/03/14 00:07:05;;;;;;;6.82;6.13;;;19.90;36.70;;;;;;6159507;23;20246;-54
2022/03/14 00:09:33;;;;;;;6.80;5.93;;;19.90;36.60;;;;;;6184506;23;20183;-54
2022/03/14 00:12:04;;;;;;;7.03;6.43;;;19.90;36.80;;;;;;6184352;23;20175;-54
2022/03/14 00:14:32;;;;;;;6.63;6.03;;;19.80;36.50;;;;;;6186145;23;20487;-54
2022/03/14 00:17:02;;;;;;;7.07;6.40;;;19.90;36.60;;;;;;6186008;23;20164;-54
2022/03/14 00:19:32;;;;;;;6.82;6.13;;;19.80;36.50;;;;;;6186332;23;20171;-54
2022/03/14 00:22:00;;;;;;;6.53;5.95;;;19.80;36.50;;;;;;6159788;23;20206;-54
2022/03/14 00:24:29;;;;;;;6.15;5.65;;;19.80;36.50;;;;;;6159870;23;20168;-54
2022/03/14 00:26:56;;;;;;;6.75;6.03;;;19.80;36.80;;;;;;6185881;23;20175;-54
2022/03/14 00:29:25;;;;;;;6.18;5.57;;;19.80;37.00;;;;;;6159652;23;20184;-53
2022/03/14 00:31:53;;;;;;;6.45;5.75;;;19.80;37.30;;;;;;6186257;23;20172;-54
2022/03/14 00:34:20;;;;;;;6.10;5.47;;;19.70;37.20;;;;;;6185951;23;20691;-55
2022/03/14 00:36:48;;;;;;;6.53;5.93;;;19.70;37.20;;;;;;6159595;23;20168;-54
2022/03/14 00:39:15;;;;;;;6.88;6.18;;;19.70;37.20;;;;;;6185993;23;20172;-53
2022/03/14 00:41:43;;;;;;;6.90;6.30;;;19.70;37.20;;;;;;6160589;23;20176;-54
2022/03/14 00:44:15;;;;;;;6.70;6.13;;;19.70;37.30;;;;;;6185950;23;20714;-54
2022/03/14 00:46:43;;;;;;;6.82;6.13;;;19.60;36.80;;;;;;6159699;23;20175;-54
2022/03/14 00:49:11;;;;;;;6.25;5.65;;;19.60;37.00;;;;;;6159595;23;20199;-53
2022/03/14 00:51:40;;;;;;;6.40;5.80;;;19.60;36.90;;;;;;6186044;23;20168;-54
2022/03/14 00:54:09;;;;;;;6.30;5.70;;;19.60;37.10;;;;;;6184209;23;20192;-53
2022/03/14 00:56:37;;;;;;;6.30;5.70;;;19.60;37.20;;;;;;6184556;23;20253;-54
2022/03/14 00:59:04;;;;;;;6.82;6.22;;;19.60;37.00;;;;;;6184214;23;20171;-54
2022/03/14 01:01:31;;;;;;;6.25;5.65;;;19.60;36.90;;;;;;6186214;23;20175;-54
2022/03/14 01:04:00;;;;;;;6.70;6.10;;;19.60;37.00;;;;;;6185430;23;20180;-54
2022/03/14 01:06:30;;;;;;;6.18;5.65;;;19.50;37.00;;;;;;6186011;23;20247;-53
2022/03/14 01:08:57;;;;;;;6.88;6.18;;;19.50;37.10;;;;;;6185678;23;20589;-53
2022/03/14 01:11:24;;;;;;;6.45;5.93;;;19.50;37.00;;;;;;6185939;23;20164;-53
2022/03/14 01:13:52;;;;;;;6.60;5.93;;;19.50;36.90;;;;;;6185881;23;20262;-54
2022/03/14 01:16:19;;;;;;;6.78;5.80;;;19.50;37.00;;;;;;6186014;23;20168;-53
2022/03/14 01:18:46;;;;;;;6.40;5.80;;;19.50;36.90;;;;;;6184046;23;20194;-54
2022/03/14 01:21:15;;;;;;;6.50;5.90;;;19.50;37.20;;;;;;6186005;23;20169;-54
2022/03/14 01:23:43;;;;;;;6.13;5.63;;;19.40;36.80;;;;;;6159228;23;20219;-54
2022/03/14 01:26:10;;;;;;;6.43;5.82;;;19.50;37.00;;;;;;6186091;23;20641;-53
2022/03/14 01:28:38;;;;;;;6.20;5.60;;;19.40;37.00;;;;;;6187427;23;20180;-54
2022/03/14 01:31:05;;;;;;;6.43;5.82;;;19.40;36.80;;;;;;6187808;23;20219;-54
2022/03/14 01:33:33;;;;;;;5.65;5.15;;;19.40;36.70;;;;;;6187597;23;20526;-54
2022/03/14 01:36:03;;;;;;;6.43;5.75;;;19.50;36.60;;;;;;6185791;23;20176;-53
2022/03/14 01:38:31;;;;;;;6.68;5.75;;;19.40;36.40;;;;;;6187768;23;20183;-54
2022/03/14 01:41:00;;;;;;;6.35;5.75;;;19.40;36.20;;;;;;6187719;23;20168;-54
2022/03/14 01:43:27;;;;;;;5.93;5.43;;;19.40;36.20;;;;;;6187462;23;20676;-53
2022/03/14 01:45:56;;;;;;;6.68;6.13;;;19.40;36.20;;;;;;6187647;23;20169;-54
2022/03/14 01:48:24;;;;;;;6.38;5.70;;;19.40;36.20;;;;;;6185782;23;20215;-54
2022/03/14 01:50:51;;;;;;;6.40;5.80;;;19.40;36.20;;;;;;6185854;23;20214;-54
2022/03/14 01:53:21;;;;;;;6.72;6.03;;;19.40;36.40;;;;;;6185755;23;20532;-54
2022/03/14 01:55:51;;;;;;;5.90;5.40;;;19.40;36.80;;;;;;6185818;23;20196;-54
2022/03/14 01:58:18;;;;;;;6.68;6.07;;;19.40;36.80;;;;;;6187657;23;20608;-54
2022/03/14 02:00:46;;;;;;;6.75;6.15;;;19.40;36.90;;;;;;6187967;23;20164;-54
2022/03/14 02:03:13;;;;;;;5.97;5.47;;;19.40;36.90;;;;;;6187409;23;20506;-54
2022/03/14 02:05:41;;;;;;;6.43;5.82;;;19.40;36.80;;;;;;6162158;23;20502;-53
2022/03/14 02:08:09;;;;;;;6.28;5.70;;;19.40;37.00;;;;;;6187414;23;20242;-54
2022/03/14 02:10:36;;;;;;;6.57;5.97;;;19.40;37.10;;;;;;6187720;23;20175;-54
2022/03/14 02:13:08;;;;;;;6.40;5.80;;;19.30;37.20;;;;;;6160861;23;20246;-53
2022/03/14 02:15:37;;;;;;;6.60;5.88;;;19.40;37.20;;;;;;6187372;23;20196;-54
2022/03/14 02:18:04;;;;;;;6.18;5.68;;;19.30;37.40;;;;;;6160957;23;20276;-55
2022/03/14 02:20:33;;;;;;;6.32;5.72;;;19.30;37.50;;;;;;6160743;23;20258;-54
2022/03/14 02:23:00;;;;;;;6.88;6.28;;;19.30;37.50;;;;;;6186213;23;20219;-54
2022/03/14 02:25:28;;;;;;;6.32;5.80;;;19.30;37.60;;;;;;6187034;23;20170;-54
2022/03/14 02:27:56;;;;;;;6.65;6.05;;;19.30;37.70;;;;;;6187479;23;20190;-55
2022/03/14 02:30:23;;;;;;;6.40;5.80;;;19.30;37.70;;;;;;6187986;23;20172;-54
2022/03/14 02:32:51;;;;;;;6.85;6.18;;;19.30;37.90;;;;;;6161989;23;20192;-53
2022/03/14 02:35:19;;;;;;;6.55;5.95;;;19.30;37.90;;;;;;6187463;23;20164;-54
2022/03/14 02:37:48;;;;;;;6.75;6.15;;;19.20;37.90;;;;;;6187040;23;20183;-54
2022/03/14 02:40:16;;;;;;;6.57;6.07;;;19.20;37.90;;;;;;6160760;23;20199;-53
2022/03/14 02:42:43;;;;;;;6.07;5.57;;;19.20;38.00;;;;;;6160994;23;20196;-54
2022/03/14 02:45:11;;;;;;;6.50;5.90;;;19.20;38.00;;;;;;6185862;23;20219;-54
2022/03/14 02:47:38;;;;;;;6.82;6.22;;;19.20;38.10;;;;;;6187156;23;20507;-54
2022/03/14 02:50:06;;;;;;;6.57;5.97;;;19.20;38.30;;;;;;6160627;23;20178;-54
2022/03/14 02:52:34;;;;;;;6.70;6.05;;;19.20;38.30;;;;;;6186778;23;20183;-54
2022/03/14 02:55:03;;;;;;;6.45;5.85;;;19.20;38.40;;;;;;6187014;23;20167;-54
2022/03/14 02:57:31;;;;;;;6.35;5.75;;;19.20;38.50;;;;;;6185404;23;20614;-54
2022/03/14 02:59:58;;;;;;;6.32;5.82;;;19.20;38.60;;;;;;6230422;22;20191;-68
2022/03/14 03:02:25;;;;;;;6.80;6.20;;;19.20;38.70;;;;;;6220440;23;20181;-67
2022/03/14 03:04:54;;;;;;;6.25;5.68;;;19.20;38.70;;;;;;6220625;23;20487;-68
2022/03/14 03:07:21;;;;;;;6.70;6.10;;;19.20;38.90;;;;;;6247837;22;20177;-68
2022/03/14 03:09:48;;;;;;;6.80;6.22;;;19.20;38.90;;;;;;6200602;23;20226;-68
2022/03/14 03:12:21;;;;;;;6.88;6.30;;;19.20;39.00;;;;;;6190332;23;20571;-68
2022/03/14 03:14:50;;;;;;;7.15;6.47;;;19.20;39.10;;;;;;6190664;23;20245;-68
2022/03/14 03:17:17;;;;;;;7.78;7.07;;;19.10;39.00;;;;;;6190746;23;20614;-67
2022/03/14 03:19:44;;;;;;;7.05;6.45;;;19.10;39.00;;;;;;6217331;23;20176;-68
2022/03/14 03:22:11;;;;;;;6.53;6.03;;;19.10;39.70;;;;;;6191058;23;20221;-67
2022/03/14 03:24:38;;;;;;;6.75;6.15;;;19.10;39.20;;;;;;6218526;23;20168;-68
2022/03/14 03:27:05;;;;;;;6.93;6.22;;;19.10;39.20;;;;;;6217504;23;20164;-68
2022/03/14 03:29:34;;;;;;;6.38;5.72;;;19.10;39.30;;;;;;6217247;23;20187;-68
2022/03/14 03:32:01;;;;;;;6.85;5.78;;;19.10;39.30;;;;;;6191484;23;20182;-68
2022/03/14 03:34:28;;;;;;;6.55;5.95;;;19.10;39.30;;;;;;6217504;23;20207;-68
2022/03/14 03:36:55;;;;;;;7.68;5.85;;;19.10;39.30;;;;;;6190638;23;20231;-67
2022/03/14 03:39:23;;;;;;;6.53;5.93;;;19.10;39.20;;;;;;6190600;23;20199;-68
2022/03/14 03:41:50;;;;;;;6.30;5.70;;;19.10;39.30;;;;;;6190020;23;20171;-68
2022/03/14 03:44:17;;;;;;;6.90;6.30;;;19.10;39.30;;;;;;6211087;22;20202;-68
2022/03/14 03:46:47;;;;;;;6.53;5.95;;;19.10;39.30;;;;;;6249479;23;20189;-66
2022/03/14 03:49:14;;;;;;;6.43;5.82;;;19.10;39.40;;;;;;6250045;22;20185;-66
2022/03/14 03:51:42;;;;;;;7.55;6.22;;;19.10;39.30;;;;;;6222978;23;20171;-68
2022/03/14 03:54:09;;;;;;;6.55;5.95;;;19.10;39.30;;;;;;6195452;23;20581;-67
2022/03/14 03:56:38;;;;;;;6.32;5.82;;;19.10;39.40;;;;;;6219872;23;20637;-66
2022/03/14 03:59:05;;;;;;;6.90;6.20;;;19.10;39.40;;;;;;6192240;23;20205;-66
2022/03/14 04:01:34;;;;;;;6.20;5.70;;;19.10;39.40;;;;;;6192369;23;20183;-66
2022/03/14 04:04:03;;;;;;;7.05;6.38;;;19.00;39.40;;;;;;6219198;23;20183;-66
2022/03/14 04:06:31;;;;;;;6.03;5.53;;;19.00;39.40;;;;;;6192394;23;20606;-66
2022/03/14 04:09:00;;;;;;;6.00;5.45;;;19.00;39.40;;;;;;6193346;23;20219;-66
2022/03/14 04:11:27;;;;;;;6.00;5.50;;;19.00;39.40;;;;;;6218853;23;20168;-67
2022/03/14 04:13:58;;;;;;;6.03;5.50;;;19.00;39.50;;;;;;6192282;23;20215;-67
2022/03/14 04:16:26;;;;;;;6.53;5.93;;;19.00;39.50;;;;;;6192182;23;20167;-66
2022/03/14 04:18:55;;;;;;;6.20;5.65;;;19.00;39.70;;;;;;6192350;23;20163;-66
2022/03/14 04:21:25;;;;;;;6.43;5.70;;;19.00;39.80;;;;;;6218615;23;20225;-66
2022/03/14 04:23:52;;;;;;;6.20;5.60;;;19.10;40.00;;;;;;6192014;23;20282;-66
2022/03/14 04:26:19;;;;;;;6.00;5.50;;;19.00;39.80;;;;;;6192280;23;20195;-68
2022/03/14 04:28:47;;;;;;;6.13;5.45;;;19.10;39.90;;;;;;6192023;23;20192;-67
2022/03/14 04:31:15;;;;;;;8.23;5.90;;;19.10;39.80;;;;;;6218952;23;20506;-66
2022/03/14 04:33:42;;;;;;;6.53;5.60;;;19.10;39.80;;;;;;6192139;23;20530;-67
2022/03/14 04:36:09;;;;;;;6.65;5.90;;;19.10;39.70;;;;;;6192737;23;20182;-66
2022/03/14 04:38:38;;;;;;;6.50;5.78;;;19.10;39.60;;;;;;6219193;23;20618;-66
2022/03/14 04:41:06;;;;;;;6.07;5.50;;;19.20;39.60;;;;;;6246466;22;20194;-63
2022/03/14 04:43:33;;;;;;;6.25;5.65;;;19.20;39.60;;;;;;6201124;23;20195;-63
2022/03/14 04:46:00;;;;;;;5.43;4.97;;;19.20;39.50;;;;;;6191296;23;20688;-63
2022/03/14 04:48:27;;;;;;;5.50;4.95;;;19.20;39.40;;;;;;6191632;23;20275;-64
2022/03/14 04:50:56;;;;;;;6.15;5.55;;;19.20;39.40;;;;;;6192854;23;20171;-63
2022/03/14 04:53:23;;;;;;;5.72;5.00;;;19.20;39.40;;;;;;6218058;23;20179;-63
2022/03/14 04:55:52;;;;;;;5.68;5.18;;;19.30;39.40;;;;;;6217927;23;20170;-64
2022/03/14 04:58:19;;;;;;;5.72;5.25;;;19.30;39.30;;;;;;6217759;23;20167;-63
2022/03/14 05:00:47;;;;;;;5.70;5.20;;;19.30;39.30;;;;;;6233898;23;20160;-63
2022/03/14 05:03:15;;;;;;;6.03;5.50;;;19.30;39.20;;;;;;6196930;23;20195;-63
2022/03/14 05:05:42;;;;;;;5.32;4.82;;;19.30;39.20;;;;;;6193139;23;20171;-63
2022/03/14 05:08:09;;;;;;;5.10;4.70;;;19.30;39.20;;;;;;6192888;23;20194;-63
2022/03/14 05:10:36;;;;;;;5.20;4.70;;;19.30;39.20;;;;;;6193084;23;20593;-63
2022/03/14 05:13:05;;;;;;;5.43;4.93;;;19.30;39.20;;;;;;6219366;23;20684;-63
2022/03/14 05:15:34;;;;;;;5.28;4.78;;;19.40;40.00;;;;;;6218982;23;20190;-63
2022/03/14 05:18:02;;;;;;;5.43;5.00;;;19.40;40.50;;;;;;6192789;23;20171;-63
2022/03/14 05:23:04;;;;;;;4.80;4.40;;;19.40;41.60;;;;;;6179284;23;20198;-64
2022/03/14 05:25:32;;;;;;;4.10;3.80;;;19.40;41.40;;;;;;6188806;22;20205;-73
2022/03/14 05:27:59;;;;;;;3.85;3.55;;;19.40;41.60;;;;;;6195391;23;20231;-73
2022/03/14 05:30:28;;;;;;;4.03;3.72;;;19.40;41.40;;;;;;6196291;23;20195;-71
2022/03/14 05:32:55;;;;;;;4.38;3.97;;;19.40;41.10;;;;;;6183138;23;20253;-72
2022/03/14 05:35:22;;;;;;;4.35;3.78;;;19.40;40.70;;;;;;6180142;23;20203;-72
2022/03/14 05:37:50;;;;;;;3.60;3.30;;;19.40;41.40;;;;;;6232601;22;20191;-63
2022/03/14 05:40:20;;;;;;;4.82;4.05;;;19.50;41.70;;;;;;6248443;23;20169;-62
2022/03/14 05:42:48;;;;;;;3.10;2.90;;;19.50;41.40;;;;;;6233147;22;20190;-62
2022/03/14 05:45:16;;;;;;;3.17;2.97;;;19.50;41.80;;;;;;6279265;22;20166;-63
2022/03/14 05:47:44;;;;;;;3.72;3.10;;;19.50;41.60;;;;;;6252252;22;20699;-62
2022/03/14 05:50:11;;;;;;;3.53;3.15;;;19.50;41.10;;;;;;6252196;22;20221;-63
2022/03/14 05:52:39;;;;;;;3.15;2.95;;;19.60;41.30;;;;;;6265179;22;20203;-72
2022/03/14 05:55:07;;;;;;;3.38;3.17;;;19.50;40.90;;;;;;6215310;22;20499;-69
2022/03/14 05:57:35;;;;;;;3.20;3.00;;;19.60;40.90;;;;;;6195982;22;20203;-74
2022/03/14 06:00:02;;;;;;;3.00;2.80;;;19.60;40.00;;;;;;6222333;23;20174;-74
2022/03/14 06:05:07;;;;;;;3.17;2.88;;;19.60;39.60;;;;;;6220537;22;20210;-75
2022/03/14 06:07:35;;;;;;;3.15;2.95;;;19.60;39.40;;;;;;6187472;23;20251;-67
2022/03/14 06:10:02;;;;;;;2.90;2.70;;;19.70;39.20;;;;;;6191016;23;20203;-63
2022/03/14 06:12:30;;;;;;;2.92;2.65;;;19.70;39.20;;;;;;6182703;23;20535;-64
2022/03/14 06:14:58;;;;;;;3.10;2.90;;;19.60;39.10;;;;;;6163033;23;20177;-64
2022/03/14 06:17:25;;;;;;;3.00;2.80;;;19.70;39.10;;;;;;6157186;23;20179;-63
2022/03/14 06:19:53;;;;;;;3.67;2.83;;;19.60;39.00;;;;;;6158384;23;20608;-63
2022/03/14 06:22:22;;;;;;;3.40;3.10;;;19.60;38.80;;;;;;6156568;23;20513;-62
2022/03/14 06:24:51;;;;;;;3.00;2.80;;;19.70;38.90;;;;;;6169241;23;20227;-69
2022/03/14 06:27:19;;;;;;;2.63;2.45;;;19.70;38.90;;;;;;6187835;23;20176;-69
2022/03/14 06:29:46;;;;;;;3.00;2.80;;;19.70;38.80;;;;;;6189948;23;20213;-69
2022/03/14 06:32:15;;;;;;;3.10;2.90;;;19.70;38.70;;;;;;6183806;23;20254;-69
2022/03/14 06:34:43;;;;;;;3.00;2.72;;;19.70;38.70;;;;;;6158073;23;20172;-69
2022/03/14 06:37:12;;;;;;;3.17;2.88;;;19.70;38.80;;;;;;6157889;23;20567;-68
2022/03/14 06:39:40;;;;;;;3.15;2.92;;;19.80;38.80;;;;;;6158142;23;20576;-68
2022/03/14 06:42:09;;;;;;;2.55;2.45;;;19.80;39.40;;;;;;6159431;23;20223;-67
2022/03/14 06:44:38;;;;;;;2.70;2.50;;;19.80;38.70;;;;;;6157308;23;20173;-68
2022/03/14 07:08:47;;;;;;;2.55;2.45;;;20.00;37.80;;;;;;6280239;22;20184;-62
2022/03/14 07:11:15;;;;;;;2.42;2.22;;;20.10;37.70;;;;;;6251793;22;20229;-62
2022/03/14 07:13:42;;;;;;;2.50;2.30;;;20.20;37.60;;;;;;6258718;22;20182;-62
2022/03/14 07:16:10;;;;;;;2.60;2.40;;;20.30;37.40;;;;;;6248523;23;20163;-62
2022/03/14 07:18:38;;;;;;;2.67;2.47;;;20.40;37.00;;;;;;6248786;23;20167;-62
2022/03/14 07:21:06;;;;;;;2.30;2.20;;;20.50;37.10;;;;;;6221406;23;20171;-62
2022/03/14 07:23:34;;;;;;;2.60;2.40;;;20.60;36.80;;;;;;6248348;22;20183;-62
2022/03/14 07:26:03;;;;;;;2.60;2.40;;;20.70;36.80;;;;;;6220565;23;20270;-62
2022/03/14 07:28:30;;;;;;;2.75;2.33;;;20.80;36.50;;;;;;6246403;23;20585;-63
2022/03/14 07:30:57;;;;;;;3.00;2.40;;;20.80;36.30;;;;;;6220610;23;20290;-63
2022/03/14 07:33:28;;;;;;;2.30;2.20;;;20.90;36.40;;;;;;6247189;22;20277;-62
2022/03/14 07:35:55;;;;;;;2.45;2.30;;;21.00;36.30;;;;;;6220447;23;20198;-62
2022/03/14 07:38:23;;;;;;;2.85;2.65;;;21.10;36.20;;;;;;6245587;23;20209;-62
2022/03/14 07:40:52;;;;;;;2.70;2.50;;;21.20;36.00;;;;;;6220284;23;20171;-62
2022/03/14 07:43:21;;;;;;;2.40;2.30;;;21.40;35.90;;;;;;6220288;23;20277;-62
2022/03/14 07:45:49;;;;;;;2.70;2.28;;;21.60;35.60;;;;;;6220089;23;20621;-62
2022/03/14 07:48:19;;;;;;;2.40;2.20;;;21.60;35.10;;;;;;6220368;23;20175;-62
2022/03/14 07:50:47;;;;;;;3.00;2.80;;;21.70;35.10;;;;;;6247260;23;20190;-62
2022/03/14 07:53:14;;;;;;;3.33;2.60;;;21.80;35.40;;;;;;6219869;23;20194;-63
2022/03/14 07:55:41;;;;;;;2.70;2.50;;;21.90;35.20;;;;;;6245325;23;20232;-63
2022/03/14 07:58:09;;;;;;;2.28;2.17;;;22.10;35.20;;;;;;6219719;23;20198;-63
2022/03/14 08:00:40;;;;;;;2.13;2.00;;;22.30;34.80;;;;;;6220323;23;20531;-63
2022/03/14 08:03:07;;;;;;;2.67;2.13;;;22.40;34.60;;;;;;6195094;23;20237;-62
2022/03/14 08:05:34;;;;;;;2.30;2.10;;;22.40;34.00;;;;;;6245077;23;20213;-63
2022/03/14 08:08:02;;;;;;;2.40;2.20;;;22.50;34.00;;;;;;6244887;23;20187;-63
2022/03/14 08:10:30;;;;;;;2.50;2.30;;;22.60;33.90;;;;;;6245375;23;20186;-63
2022/03/14 08:12:58;;;;;;;2.13;2.03;;;22.70;33.80;;;;;;6219979;23;20190;-63
2022/03/14 08:15:26;;;;;;;2.10;1.90;;;22.80;33.70;;;;;;6220626;23;20175;-63
2022/03/14 08:17:56;;;;;;;2.65;2.03;;;23.00;33.50;;;;;;6221116;23;20175;-63
2022/03/14 08:20:23;;;;;;;2.40;2.20;;;23.10;32.90;;;;;;6247340;23;20494;-63
2022/03/14 08:22:51;;;;;;;2.10;1.90;;;23.10;33.20;;;;;;6220376;23;20253;-64
2022/03/14 08:25:21;;;;;;;2.10;1.90;;;23.10;33.10;;;;;;6245008;23;20171;-63
2022/03/14 08:27:48;;;;;;;3.05;2.10;;;23.10;33.70;;;;;;6220167;23;20175;-63
2022/03/14 08:30:15;;;;;;;2.10;2.00;;;23.20;32.80;;;;;;6220446;23;20221;-63
2022/03/14 08:32:43;;;;;;;2.35;2.15;;;23.40;32.70;;;;;;6220299;23;20252;-63
2022/03/14 08:35:15;;;;;;;2.22;2.13;;;23.40;32.40;;;;;;6220591;23;20226;-63
2022/03/14 08:37:44;;;;;;;1.90;1.80;;;23.50;32.30;;;;;;6220227;23;20170;-63
2022/03/14 08:40:13;;;;;;;2.17;2.08;;;23.50;32.10;;;;;;6220126;23;20221;-58
2022/03/14 08:42:41;;;;;;;1.80;1.70;;;23.60;32.00;;;;;;6244417;23;20198;-58
2022/03/14 08:45:09;;;;;;;1.90;1.80;;;23.70;31.70;;;;;;6219551;23;20174;-58
2022/03/14 08:47:37;;;;;;;2.40;2.15;;;23.80;31.60;;;;;;6245994;23;20174;-58
2022/03/14 08:50:06;;;;;;;2.30;2.10;;;23.90;31.40;;;;;;6219058;23;20233;-58
2022/03/14 08:52:34;;;;;;;2.13;2.03;;;24.10;31.20;;;;;;6246014;22;20178;-58
2022/03/14 08:55:02;;;;;;;1.73;1.63;;;24.20;31.00;;;;;;6219125;23;20179;-58
2022/03/14 08:57:29;;;;;;;1.92;1.70;;;24.30;31.30;;;;;;6219676;23;20174;-58
2022/03/14 08:59:57;;;;;;;2.00;1.90;;;24.30;30.70;;;;;;6219100;23;20166;-58
2022/03/14 09:02:24;;;;;;;1.92;1.80;;;24.20;30.60;;;;;;6244252;22;20171;-58
2022/03/14 09:04:51;;;;;;;1.90;1.80;;;24.00;30.90;;;;;;6244397;23;20182;-58
2022/03/14 09:07:28;;;;;;;1.70;1.60;;;23.90;31.00;;;;;;6218679;23;20210;-58
2022/03/14 09:10:01;;;;;;;2.58;1.98;;;23.70;31.20;;;;;;6244447;23;20219;-58
2022/03/14 09:12:30;;;;;;;2.28;1.80;;;23.60;31.30;;;;;;6219314;22;20195;-58
2022/03/14 09:14:58;;;;;;;1.80;1.70;;;23.60;31.40;;;;;;6219772;23;20170;-58
2022/03/14 09:17:28;;;;;;;1.77;1.67;;;23.50;31.40;;;;;;6246897;23;20159;-58
2022/03/14 09:19:57;;;;;;;2.15;1.95;;;23.50;31.40;;;;;;6244822;23;20202;-58
2022/03/14 09:22:25;;;;;;;2.17;1.98;;;23.50;31.40;;;;;;6219177;22;20286;-58
2022/03/14 09:24:55;;;;;;;1.83;1.73;;;23.40;31.30;;;;;;6246493;23;20215;-58
2022/03/14 09:27:25;;;;;;;2.20;2.10;;;23.40;31.30;;;;;;6220123;23;20563;-58
2022/03/14 09:29:52;;;;;;;1.95;1.85;;;23.40;31.40;;;;;;6219406;23;20199;-58
2022/03/14 09:32:20;;;;;;;2.17;2.00;;;23.40;31.40;;;;;;6219324;22;20257;-58
2022/03/14 09:34:47;;;;;;;2.05;1.85;;;23.40;31.30;;;;;;6220245;23;20170;-58
2022/03/14 09:37:15;;;;;;;2.60;1.60;;;23.40;31.20;;;;;;6219480;23;20255;-58
2022/03/14 09:39:42;;;;;;;1.98;1.80;;;23.40;31.10;;;;;;6219585;23;20632;-58
2022/03/14 09:42:11;;;;;;;2.05;1.73;;;23.40;31.10;;;;;;6219094;22;20180;-58
2022/03/14 09:44:41;;;;;;;1.90;1.70;;;23.40;31.10;;;;;;6219314;23;20198;-58
2022/03/14 09:47:09;;;;;;;2.22;1.80;;;23.50;31.00;;;;;;6246349;23;20660;-58
2022/03/14 09:49:36;;;;;;;2.15;1.80;;;23.50;31.60;;;;;;6221120;23;20175;-58
2022/03/14 09:52:05;;;;;;;2.33;2.13;;;23.60;30.90;;;;;;6248435;23;20228;-58
2022/03/14 09:54:33;;;;;;;1.60;1.50;;;23.80;30.70;;;;;;6221884;23;20181;-58
2022/03/14 09:57:01;;;;;;;1.88;1.77;;;23.90;30.40;;;;;;6247049;23;20182;-58
2022/03/14 09:59:28;;;;;;;2.15;1.80;;;24.00;30.40;;;;;;6248543;23;20614;-58
2022/03/14 10:01:57;;;;;;;1.90;1.80;;;24.10;30.40;;;;;;6221992;23;20246;-58
2022/03/14 10:04:25;;;;;;;1.98;1.80;;;24.10;30.10;;;;;;6248510;22;20187;-59
2022/03/14 10:06:53;;;;;;;1.75;1.65;;;24.20;30.10;;;;;;6220365;22;20592;-63
2022/03/14 10:09:20;;;;;;;1.80;1.70;;;24.20;30.00;;;;;;6250098;23;20171;-63
2022/03/14 10:11:47;;;;;;;1.92;1.70;;;24.30;29.90;;;;;;6249671;23;20600;-64
2022/03/14 10:14:19;;;;;;;1.95;1.80;;;24.40;29.90;;;;;;6194486;23;20206;-64
2022/03/14 10:19:35;;;;;;;1.88;1.77;;;24.50;29.70;;;;;;6265447;22;20235;-72
2022/03/14 10:32:39;;;;;;;1.70;1.60;;;24.70;29.60;;;;;;6265780;22;20214;-77
2022/03/14 10:35:10;;;;;;;1.65;1.52;;;24.70;29.50;;;;;;6242181;22;20198;-73
2022/03/14 10:37:37;;;;;;;1.83;1.73;;;24.70;29.40;;;;;;6227373;23;20287;-74
2022/03/14 10:40:06;;;;;;;2.00;1.70;;;24.70;29.40;;;;;;6226680;23;20178;-74
2022/03/14 10:42:41;;;;;;;1.70;1.60;;;24.70;29.40;;;;;;6225686;23;20640;-74
2022/03/14 10:45:11;;;;;;;1.70;1.60;;;24.70;29.90;;;;;;6212664;23;20274;-74
2022/03/14 10:50:33;;;;;;;1.75;1.50;;;24.70;29.30;;;;;;6188291;23;20196;-68
2022/03/14 10:53:08;;;;;;;1.90;1.80;;;24.80;29.50;;;;;;6212989;23;20254;-69
2022/03/14 10:55:37;;;;;;;1.80;1.70;;;24.70;29.50;;;;;;6161517;23;20220;-68
2022/03/14 10:58:09;;;;;;;1.95;1.85;;;24.70;29.50;;;;;;6192587;23;20628;-69
2022/03/14 11:00:47;;;;;;;1.63;1.52;;;24.60;29.50;;;;;;6190750;23;20186;-67
2022/03/14 11:03:21;;;;;;;1.60;1.50;;;24.60;29.60;;;;;;6191083;23;20178;-68
2022/03/14 11:05:50;;;;;;;1.77;1.60;;;24.60;29.60;;;;;;6193742;23;20246;-69
2022/03/14 11:08:27;;;;;;;1.98;1.70;;;24.50;29.70;;;;;;6189734;22;20204;-67
2022/03/14 11:10:55;;;;;;;1.80;1.70;;;24.50;29.80;;;;;;6188416;23;20223;-68
2022/03/14 11:13:22;;;;;;;1.73;1.60;;;24.60;29.80;;;;;;6161855;23;20306;-68
2022/03/14 11:15:52;;;;;;;1.88;1.65;;;24.50;29.80;;;;;;6188676;23;20483;-68
2022/03/14 11:18:20;;;;;;;1.70;1.60;;;24.60;29.80;;;;;;6188105;23;20187;-69
2022/03/14 11:20:50;;;;;;;1.75;1.58;;;24.60;29.80;;;;;;6188227;23;20188;-69
2022/03/14 11:23:17;;;;;;;1.50;1.40;;;24.50;29.80;;;;;;6188100;23;20728;-68
2022/03/14 11:25:45;;;;;;;1.90;1.70;;;24.50;29.70;;;;;;6187928;23;20367;-68
2022/03/14 11:28:37;;;;;;;1.83;1.73;;;24.60;29.80;;;;;;6188498;23;20167;-67
2022/03/14 11:31:05;;;;;;;1.75;1.65;;;24.60;29.80;;;;;;6161556;23;20642;-68
2022/03/14 11:33:32;;;;;;;1.60;1.50;;;24.60;29.90;;;;;;6162168;23;20204;-68
2022/03/14 11:36:01;;;;;;;2.60;1.60;;;24.50;29.90;;;;;;6162464;23;20175;-68
2022/03/14 11:38:29;;;;;;;1.73;1.50;;;24.50;29.90;;;;;;6189125;23;20169;-68
2022/03/14 11:40:56;;;;;;;1.77;1.67;;;24.50;29.90;;;;;;6162249;23;20191;-68
2022/03/14 11:43:24;;;;;;;1.70;1.60;;;24.50;29.90;;;;;;6162846;23;20262;-68
2022/03/14 11:45:52;;;;;;;1.85;1.60;;;24.60;30.00;;;;;;6162832;23;20514;-69
2022/03/14 11:48:19;;;;;;;1.50;1.40;;;24.50;30.00;;;;;;6189058;23;20171;-68
2022/03/14 11:50:48;;;;;;;1.88;1.67;;;24.50;29.90;;;;;;6188343;23;20219;-68
2022/03/14 11:53:21;;;;;;;1.60;1.50;;;24.50;29.90;;;;;;6162025;23;20254;-68
2022/03/14 11:55:56;;;;;;;1.63;1.50;;;24.50;29.80;;;;;;6161663;23;20255;-68
2022/03/14 11:58:35;;;;;;;1.67;1.58;;;24.50;29.90;;;;;;6187341;23;20174;-68
2022/03/14 12:01:16;;;;;;;1.70;1.60;;;24.50;30.00;;;;;;6162413;23;20168;-68
2022/03/14 12:03:47;;;;;;;1.75;1.60;;;24.50;30.00;;;;;;6188917;23;20184;-68
2022/03/14 12:07:16;;;;;;;1.80;1.70;;;24.50;30.00;;;;;;6199304;23;20215;-69
2022/03/14 12:09:51;;;;;;;1.75;1.58;;;24.50;30.00;;;;;;6016955;23;20634;-68
2022/03/14 12:12:31;;;;;;;1.65;1.55;;;24.50;29.90;;;;;;6168737;23;20282;-68
2022/03/14 12:14:59;;;;;;;1.52;1.42;;;24.60;30.00;;;;;;6163881;23;20168;-69
2022/03/14 12:17:29;;;;;;;1.88;1.73;;;24.60;30.00;;;;;;6164208;23;20322;-68
2022/03/14 12:19:58;;;;;;;1.50;1.40;;;24.50;30.00;;;;;;6163815;23;20641;-68
2022/03/14 12:22:46;;;;;;;1.70;1.60;;;24.50;30.00;;;;;;6191448;23;20614;-68
2022/03/14 12:25:34;;;;;;;2.05;1.63;;;24.50;30.00;;;;;;6190636;23;20148;-68
2022/03/14 12:28:29;;;;;;;1.70;1.60;;;24.50;30.00;;;;;;6164758;23;20234;-68
2022/03/14 12:30:58;;;;;;;1.50;1.40;;;24.50;30.00;;;;;;6189950;23;20185;-68
2022/03/14 12:33:34;;;;;;;1.85;1.75;;;24.50;30.10;;;;;;6187760;23;20214;-68
2022/03/14 12:36:30;;;;;;;1.70;1.60;;;24.50;30.00;;;;;;6189468;23;20172;-69
2022/03/14 12:39:21;;;;;;;1.50;1.40;;;24.50;30.20;;;;;;6145438;23;20176;-68
2022/03/14 12:41:50;;;;;;;1.83;1.65;;;24.40;30.10;;;;;;6163594;23;20172;-68
2022/03/14 12:44:19;;;;;;;1.60;1.50;;;24.40;30.10;;;;;;6162682;23;20202;-68
2022/03/14 12:46:48;;;;;;;1.42;1.33;;;24.40;30.10;;;;;;6189200;23;20243;-68
2022/03/14 12:49:24;;;;;;;1.40;1.30;;;24.40;30.00;;;;;;6162373;23;20186;-69
2022/03/14 12:52:11;;;;;;;1.52;1.42;;;24.40;30.10;;;;;;6161432;23;20582;-69
2022/03/14 12:54:38;;;;;;;1.70;1.60;;;24.30;30.10;;;;;;6188279;23;20156;-69
2022/03/14 12:57:07;;;;;;;1.50;1.40;;;24.30;30.20;;;;;;6161752;23;20634;-68
2022/03/14 12:59:41;;;;;;;1.50;1.40;;;24.30;30.30;;;;;;6187965;23;20168;-68
2022/03/14 13:02:11;;;;;;;1.70;1.50;;;24.30;30.20;;;;;;6162126;23;20169;-68
2022/03/14 13:04:38;;;;;;;1.50;1.40;;;24.30;30.30;;;;;;6188296;23;20171;-68
2022/03/14 13:07:05;;;;;;;2.30;1.70;;;24.30;30.20;;;;;;6161287;23;20180;-68
2022/03/14 13:09:33;;;;;;;3.13;1.48;;;24.40;30.10;;;;;;6161475;23;20658;-68
2022/03/14 13:12:00;;;;;;;1.40;1.30;;;24.40;30.10;;;;;;6161522;23;20187;-68
2022/03/14 13:14:30;;;;;;;1.55;1.45;;;24.40;30.00;;;;;;6187659;23;20167;-68
2022/03/14 13:16:58;;;;;;;3.40;1.52;;;24.50;30.00;;;;;;6161374;23;20255;-68
2022/03/14 13:19:26;;;;;;;2.90;1.75;;;24.50;30.00;;;;;;6161618;23;20180;-68
2022/03/14 13:21:55;;;;;;;1.98;1.58;;;24.50;30.20;;;;;;6161986;23;20187;-68
2022/03/14 13:24:23;;;;;;;4.72;1.92;;;24.60;30.30;;;;;;6163271;23;20172;-69
2022/03/14 13:26:50;;;;;;;2.33;1.67;;;24.60;29.60;;;;;;6190161;23;20215;-68
2022/03/14 13:29:21;;;;;;;1.90;1.60;;;24.60;29.80;;;;;;6189503;23;20306;-68
2022/03/14 13:31:52;;;;;;;1.63;1.52;;;24.60;29.70;;;;;;6163778;23;20184;-68
2022/03/14 13:34:23;;;;;;;1.63;1.50;;;24.60;29.90;;;;;;6190508;23;20185;-68
2022/03/14 13:36:52;;;;;;;1.50;1.40;;;24.60;30.20;;;;;;6189733;23;20168;-68
2022/03/14 13:39:24;;;;;;;1.48;1.38;;;24.60;29.80;;;;;;6190968;23;20236;-67
2022/03/14 13:41:52;;;;;;;1.50;1.40;;;24.50;29.80;;;;;;6163545;23;20168;-68